createdAt,value
2018-06-04T00:01:01.811Z,24.40
2018-06-04T00:03:31.049Z,22.47
2018-06-04T00:06:00.411Z,21.63
2018-06-04T00:08:29.692Z,22.33
2018-06-04T00:10:58.968Z,22.80
2018-06-04T00:13:28.428Z,25.00
2018-06-04T00:15:57.716Z,24.97
2018-06-04T00:18:26.973Z,23.70
2018-06-04T00:20:56.224Z,24.63
2018-06-04T00:23:25.468Z,25.37
2018-06-04T00:25:54.733Z,24.50
2018-06-04T00:28:23.980Z,22.73
2018-06-04T00:30:53.325Z,23.77
2018-06-04T00:33:22.573Z,24.03
2018-06-04T00:35:52.257Z,23.37
2018-06-04T00:38:21.512Z,24.23
2018-06-04T00:40:50.746Z,23.83
2018-06-04T00:43:20.053Z,25.37
2018-06-04T00:45:49.328Z,23.93
2018-06-04T00:48:18.645Z,23.97
2018-06-04T00:50:47.884Z,22.20
2018-06-04T00:53:17.135Z,24.30
2018-06-04T00:55:57.715Z,22.17
2018-06-04T00:58:26.985Z,24.57
2018-06-04T01:00:56.324Z,23.90
2018-06-04T01:03:25.554Z,25.13
2018-06-04T01:05:54.853Z,23.60
2018-06-04T01:08:24.103Z,24.33
2018-06-04T01:10:53.381Z,24.50
2018-06-04T01:13:22.728Z,26.83
2018-06-04T01:15:51.983Z,24.27
2018-06-04T01:18:21.238Z,23.07
2018-06-04T01:20:50.453Z,22.50
2018-06-04T01:23:19.673Z,23.40
2018-06-04T01:25:48.951Z,23.43
2018-06-04T01:28:18.228Z,22.80
2018-06-04T01:30:47.444Z,22.33
2018-06-04T01:33:16.674Z,22.80
2018-06-04T01:35:45.925Z,25.27
2018-06-04T01:38:15.382Z,26.50
2018-06-04T01:40:44.749Z,26.03
2018-06-04T01:43:13.975Z,24.67
2018-06-04T01:45:43.257Z,24.37
2018-06-04T01:48:12.520Z,21.60
2018-06-04T01:50:41.815Z,22.77
2018-06-04T01:53:11.037Z,22.30
2018-06-04T01:55:40.341Z,23.77
2018-06-04T01:58:09.587Z,24.30
2018-06-04T02:00:39.801Z,23.03
2018-06-04T02:03:09.053Z,25.00
2018-06-04T02:05:38.388Z,22.07
2018-06-04T02:08:07.616Z,23.87
2018-06-04T02:10:36.840Z,25.40
2018-06-04T02:13:06.084Z,28.40
2018-06-04T02:15:35.357Z,27.93
2018-06-04T02:18:04.683Z,28.40
2018-06-04T02:20:33.914Z,28.30
2018-06-04T02:23:09.639Z,25.20
2018-06-04T02:25:38.883Z,26.60
2018-06-04T02:28:08.160Z,23.73
2018-06-04T02:30:37.434Z,24.00
2018-06-04T02:33:06.677Z,22.10
2018-06-04T02:35:35.908Z,24.80
2018-06-04T02:38:05.249Z,25.97
2018-06-04T02:40:34.659Z,23.10
2018-06-04T02:43:03.881Z,22.53
2018-06-04T02:45:33.144Z,23.87
2018-06-04T02:48:02.501Z,24.90
2018-06-04T02:50:31.842Z,25.73
2018-06-04T02:53:01.172Z,28.10
2018-06-04T02:55:30.422Z,32.00
2018-06-04T02:57:59.668Z,33.40
2018-06-04T03:00:32.346Z,37.40
2018-06-04T03:03:01.504Z,33.73
2018-06-04T03:05:30.711Z,32.53
2018-06-04T03:07:59.982Z,31.70
2018-06-04T03:10:29.283Z,32.10
2018-06-04T03:12:58.559Z,32.27
2018-06-04T03:15:27.853Z,31.27
2018-06-04T03:17:57.174Z,26.83
2018-06-04T03:20:27.448Z,23.80
2018-06-04T03:22:56.732Z,25.20
2018-06-04T03:25:25.990Z,25.93
2018-06-04T03:27:55.253Z,23.47
2018-06-04T03:30:24.533Z,26.67
2018-06-04T03:32:53.804Z,25.93
2018-06-04T03:35:23.072Z,23.03
2018-06-04T03:37:52.308Z,24.57
2018-06-04T03:40:21.595Z,23.83
2018-06-04T03:42:50.869Z,24.37
2018-06-04T03:45:20.126Z,24.17
2018-06-04T03:47:49.438Z,26.63
2018-06-04T03:50:18.687Z,27.83
2018-06-04T03:52:47.949Z,25.73
2018-06-04T03:55:17.229Z,25.17
2018-06-04T03:57:46.512Z,25.17
2018-06-04T04:00:15.782Z,24.00
2018-06-04T04:02:45.043Z,25.70
2018-06-04T04:05:14.368Z,26.40
2018-06-04T04:07:43.702Z,25.90
2018-06-04T04:10:13.008Z,28.17
2018-06-04T04:12:42.252Z,28.17
2018-06-04T04:15:11.489Z,29.40
2018-06-04T04:17:40.835Z,30.20
2018-06-04T04:20:10.083Z,33.00
2018-06-04T04:22:39.351Z,30.80
2018-06-04T04:25:08.688Z,29.93
2018-06-04T04:27:37.987Z,31.27
2018-06-04T04:30:07.305Z,29.97
2018-06-04T04:32:36.566Z,27.33
2018-06-04T04:35:05.892Z,27.87
2018-06-04T04:37:35.163Z,27.47
2018-06-04T04:40:04.451Z,25.57
2018-06-04T04:42:33.759Z,27.30
2018-06-04T04:45:03.188Z,24.73
2018-06-04T04:47:32.446Z,23.33
2018-06-04T04:50:01.757Z,25.50
2018-06-04T04:52:31.017Z,24.03
2018-06-04T04:55:00.268Z,25.13
2018-06-04T04:57:29.561Z,23.60
2018-06-04T05:00:00.089Z,26.27
2018-06-04T05:02:31.376Z,29.20
2018-06-04T05:05:00.750Z,28.20
2018-06-04T05:07:30.073Z,25.57
2018-06-04T05:09:59.383Z,26.00
2018-06-04T05:12:28.718Z,27.57
2018-06-04T05:14:58.011Z,27.87
2018-06-04T05:17:27.300Z,27.63
2018-06-04T05:19:56.580Z,26.63
2018-06-04T05:22:25.887Z,28.00
2018-06-04T05:24:55.165Z,27.23
2018-06-04T05:27:24.422Z,28.73
2018-06-04T05:29:53.680Z,24.30
2018-06-04T05:32:22.951Z,25.50
2018-06-04T05:34:52.204Z,26.50
2018-06-04T05:37:21.537Z,27.23
2018-06-04T05:39:50.916Z,23.43
2018-06-04T05:42:20.282Z,24.47
2018-06-04T05:44:49.492Z,25.63
2018-06-04T05:47:18.738Z,26.27
2018-06-04T05:49:48.027Z,25.53
2018-06-04T05:52:17.377Z,30.00
2018-06-04T05:54:46.860Z,28.57
2018-06-04T05:57:16.137Z,26.57
2018-06-04T05:59:45.401Z,31.50
2018-06-04T06:02:15.830Z,32.80
2018-06-04T06:04:46.129Z,31.93
2018-06-04T06:07:17.562Z,38.97
2018-06-04T06:09:49.052Z,35.77
2018-06-04T06:12:19.372Z,41.20
2018-06-04T06:14:49.179Z,35.13
2018-06-04T06:17:18.729Z,37.73
2018-06-04T06:19:48.891Z,35.50
2018-06-04T06:22:18.184Z,31.90
2018-06-04T06:24:48.759Z,33.17
2018-06-04T06:27:19.756Z,34.27
2018-06-04T06:29:50.900Z,32.77
2018-06-04T06:32:20.958Z,29.20
2018-06-04T06:34:50.850Z,31.70
2018-06-04T06:37:20.728Z,30.50
2018-06-04T06:39:51.942Z,27.40
2018-06-04T06:42:21.481Z,26.73
2018-06-04T06:44:50.931Z,27.47
2018-06-04T06:47:22.337Z,24.30
2018-06-04T06:49:53.287Z,23.43
2018-06-04T06:52:23.291Z,22.77
2018-06-04T06:54:53.687Z,23.40
2018-06-04T06:57:23.249Z,24.03
2018-06-04T06:59:53.721Z,23.60
2018-06-04T07:02:25.154Z,20.77
2018-06-04T07:04:56.398Z,22.07
2018-06-04T07:07:27.459Z,23.80
2018-06-04T07:09:57.165Z,21.63
2018-06-04T07:12:27.771Z,22.70
2018-06-04T07:14:58.733Z,21.10
2018-06-04T07:17:29.302Z,22.90
2018-06-04T07:20:00.186Z,22.77
2018-06-04T07:22:31.844Z,20.63
2018-06-04T07:25:02.662Z,21.47
2018-06-04T07:27:32.527Z,20.23
2018-06-04T07:30:02.098Z,20.07
2018-06-04T07:32:32.864Z,18.13
2018-06-04T07:35:02.956Z,18.60
2018-06-04T07:37:32.292Z,18.97
2018-06-04T07:40:03.795Z,20.10
2018-06-04T07:42:33.593Z,17.73
2018-06-04T07:45:05.074Z,16.50
2018-06-04T07:47:36.676Z,17.70
2018-06-04T07:50:06.481Z,18.10
2018-06-04T07:52:36.534Z,17.60
2018-06-04T07:55:06.965Z,17.67
2018-06-04T07:57:36.408Z,16.60
2018-06-04T08:00:06.378Z,16.13
2018-06-04T08:02:35.794Z,15.43
2018-06-04T08:05:05.110Z,14.87
2018-06-04T08:07:34.373Z,15.77
2018-06-04T08:10:03.847Z,15.47
2018-06-04T08:12:33.111Z,15.20
2018-06-04T08:15:02.496Z,15.60
2018-06-04T08:17:31.784Z,16.80
2018-06-04T08:20:01.092Z,15.73
2018-06-04T08:22:30.402Z,15.73
2018-06-04T08:24:59.723Z,14.53
2018-06-04T08:27:29.005Z,15.90
2018-06-04T08:29:58.305Z,15.00
2018-06-04T08:32:27.672Z,13.67
2018-06-04T08:34:56.967Z,15.00
2018-06-04T08:37:26.284Z,13.63
2018-06-04T08:39:55.543Z,15.83
2018-06-04T08:42:24.893Z,12.90
2018-06-04T08:44:54.212Z,14.17
2018-06-04T08:47:23.677Z,14.10
2018-06-04T08:49:52.975Z,12.63
2018-06-04T08:52:22.281Z,13.03
2018-06-04T08:54:51.592Z,11.13
2018-06-04T08:57:20.901Z,12.50
2018-06-04T08:59:50.267Z,12.90
2018-06-04T09:02:19.552Z,11.43
2018-06-04T09:04:48.886Z,10.40
2018-06-04T09:07:19.169Z,10.60
2018-06-04T09:09:48.512Z,13.00
2018-06-04T09:12:17.828Z,12.57
2018-06-04T09:14:47.119Z,13.40
2018-06-04T09:17:16.526Z,13.27
2018-06-04T09:19:45.783Z,11.57
2018-06-04T09:22:15.065Z,12.57
2018-06-04T09:24:44.359Z,10.00
2018-06-04T09:27:13.633Z,12.23
2018-06-04T09:29:42.993Z,12.50
2018-06-04T09:32:12.348Z,10.23
2018-06-04T09:34:41.644Z,13.10
2018-06-04T09:37:10.953Z,11.33
2018-06-04T09:39:40.287Z,12.83
2018-06-04T09:42:09.673Z,13.27
2018-06-04T09:44:39.025Z,11.87
2018-06-04T09:47:08.397Z,9.97
2018-06-04T09:49:37.902Z,10.30
2018-06-04T09:52:07.230Z,11.00
2018-06-04T09:54:36.581Z,11.30
2018-06-04T09:57:05.983Z,9.50
2018-06-04T09:59:35.303Z,8.70
2018-06-04T10:02:04.713Z,9.47
2018-06-04T10:04:34.145Z,9.83
2018-06-04T10:07:03.532Z,9.60
2018-06-04T10:09:32.886Z,9.77
2018-06-04T10:12:02.239Z,9.27
2018-06-04T10:14:31.559Z,8.87
2018-06-04T10:17:00.851Z,8.50
2018-06-04T10:19:30.120Z,8.33
2018-06-04T10:21:59.430Z,9.30
2018-06-04T10:24:28.844Z,9.27
2018-06-04T10:26:58.157Z,8.20
2018-06-04T10:29:27.561Z,8.20
2018-06-04T10:31:56.939Z,8.00
2018-06-04T10:34:26.498Z,8.43
2018-06-04T10:36:55.835Z,7.60
2018-06-04T10:39:25.128Z,9.87
2018-06-04T10:41:54.409Z,9.87
2018-06-04T10:44:23.708Z,10.67
2018-06-04T10:46:53.029Z,10.70
2018-06-04T10:49:22.348Z,9.77
2018-06-04T10:51:51.613Z,8.60
2018-06-04T10:54:20.848Z,8.00
2018-06-04T10:56:50.143Z,7.93
2018-06-04T10:59:19.369Z,7.63
2018-06-04T11:01:48.685Z,8.70
2018-06-04T11:04:17.956Z,8.37
2018-06-04T11:06:47.285Z,8.50
2018-06-04T11:09:16.579Z,8.93
2018-06-04T11:11:45.855Z,6.70
2018-06-04T11:14:15.212Z,8.63
2018-06-04T11:16:44.536Z,7.40
2018-06-04T11:19:13.804Z,7.30
2018-06-04T11:21:43.154Z,6.90
2018-06-04T11:24:12.454Z,6.47
2018-06-04T11:26:41.797Z,7.73
2018-06-04T11:29:11.057Z,7.30
2018-06-04T11:31:40.369Z,7.70
2018-06-04T11:34:09.620Z,7.93
2018-06-04T11:36:38.927Z,8.30
2018-06-04T11:39:08.423Z,7.40
2018-06-04T11:41:37.677Z,8.67
2018-06-04T11:44:06.983Z,7.57
2018-06-04T11:46:36.259Z,8.20
2018-06-04T11:49:05.528Z,7.63
2018-06-04T11:51:34.858Z,7.10
2018-06-04T11:54:04.216Z,8.50
2018-06-04T11:56:33.522Z,7.53
2018-06-04T11:59:02.796Z,8.80
2018-06-04T12:01:32.067Z,7.03
2018-06-04T12:04:01.368Z,8.63
2018-06-04T12:06:30.700Z,7.27
2018-06-04T12:09:00.007Z,8.10
2018-06-04T12:11:29.367Z,8.00
2018-06-04T12:13:58.589Z,7.23
2018-06-04T12:16:27.869Z,7.27
2018-06-04T12:18:57.242Z,7.47
2018-06-04T12:21:26.564Z,8.20
2018-06-04T12:23:55.845Z,8.03
2018-06-04T12:26:25.141Z,7.90
2018-06-04T12:28:54.427Z,7.33
2018-06-04T12:31:23.701Z,9.50
2018-06-04T12:33:53.092Z,8.80
2018-06-04T12:36:22.359Z,8.47
2018-06-04T12:38:51.623Z,6.27
2018-06-04T12:41:20.897Z,7.23
2018-06-04T12:43:50.180Z,7.23
2018-06-04T12:46:19.498Z,6.80
2018-06-04T12:48:48.794Z,6.73
2018-06-04T12:51:18.083Z,6.43
2018-06-04T12:53:47.356Z,7.80
2018-06-04T12:56:16.843Z,8.37
2018-06-04T12:58:46.227Z,7.00
2018-06-04T13:01:15.514Z,7.00
2018-06-04T13:03:44.801Z,7.30
2018-06-04T13:06:14.302Z,7.43
2018-06-04T13:08:43.649Z,7.70
2018-06-04T13:11:13.113Z,7.73
2018-06-04T13:13:42.391Z,7.87
2018-06-04T13:16:11.731Z,7.83
2018-06-04T13:18:41.038Z,7.63
2018-06-04T13:21:10.380Z,8.17
2018-06-04T13:23:39.745Z,7.63
2018-06-04T13:26:09.081Z,7.10
2018-06-04T13:28:38.385Z,7.10
2018-06-04T13:31:07.697Z,7.17
2018-06-04T13:33:37.025Z,8.00
2018-06-04T13:36:06.417Z,7.40
2018-06-04T13:38:35.658Z,6.60
2018-06-04T13:41:04.903Z,7.30
2018-06-04T13:43:34.122Z,6.60
2018-06-04T13:46:03.416Z,7.30
2018-06-04T13:48:32.703Z,7.13
2018-06-04T13:51:01.943Z,6.03
2018-06-04T13:53:31.217Z,6.87
2018-06-04T13:56:00.566Z,6.40
2018-06-04T13:58:29.909Z,6.63
2018-06-04T14:00:59.241Z,6.20
2018-06-04T14:03:28.562Z,6.77
2018-06-04T14:05:57.812Z,7.50
2018-06-04T14:08:27.072Z,6.43
2018-06-04T14:10:56.304Z,6.00
2018-06-04T14:13:25.546Z,6.23
2018-06-04T14:15:54.806Z,6.63
2018-06-04T14:18:24.019Z,6.60
2018-06-04T14:20:53.341Z,7.20
2018-06-04T14:23:22.585Z,7.00
2018-06-04T14:25:51.821Z,6.17
2018-06-04T14:28:21.053Z,6.20
2018-06-04T14:30:50.288Z,6.47
2018-06-04T14:33:19.589Z,8.10
2018-06-04T14:35:48.864Z,6.63
2018-06-04T14:38:18.115Z,7.80
2018-06-04T14:40:47.404Z,8.03
2018-06-04T14:43:16.657Z,8.23
2018-06-04T14:45:45.986Z,7.23
2018-06-04T14:48:15.518Z,7.30
2018-06-04T14:50:45.184Z,6.53
2018-06-04T14:53:14.471Z,5.70
2018-06-04T14:55:43.825Z,7.23
2018-06-04T14:58:13.143Z,7.80
2018-06-04T15:00:42.680Z,5.93
2018-06-04T15:03:12.037Z,5.73
2018-06-04T15:05:41.808Z,7.90
2018-06-04T15:08:11.180Z,7.03
2018-06-04T15:10:40.589Z,8.60
2018-06-04T15:13:10.008Z,9.10
2018-06-04T15:15:40.148Z,7.27
2018-06-04T15:18:09.507Z,7.80
2018-06-04T15:20:38.820Z,7.30
2018-06-04T15:23:08.123Z,7.10
2018-06-04T15:25:37.481Z,7.60
2018-06-04T15:28:06.809Z,6.60
2018-06-04T15:30:36.099Z,7.03
2018-06-04T15:33:05.551Z,8.10
2018-06-04T15:35:34.868Z,10.00
2018-06-04T15:38:04.173Z,9.90
2018-06-04T15:40:33.479Z,11.60
2018-06-04T15:43:02.801Z,12.17
2018-06-04T15:45:32.135Z,11.77
2018-06-04T15:48:01.521Z,11.67
2018-06-04T15:50:30.907Z,12.60
2018-06-04T15:53:00.351Z,11.30
2018-06-04T15:55:29.684Z,12.97
2018-06-04T15:57:59.186Z,11.30
2018-06-04T16:00:28.556Z,12.13
2018-06-04T16:02:58.091Z,12.37
2018-06-04T16:05:27.563Z,11.67
2018-06-04T16:07:56.909Z,12.57
2018-06-04T16:10:26.308Z,12.43
2018-06-04T16:12:55.820Z,12.37
2018-06-04T16:15:25.112Z,10.70
2018-06-04T16:17:54.447Z,13.20
2018-06-04T16:20:23.840Z,13.57
2018-06-04T16:22:53.318Z,13.73
2018-06-04T16:25:22.603Z,12.80
2018-06-04T16:27:51.842Z,9.83
2018-06-04T16:30:21.087Z,10.97
2018-06-04T16:32:50.350Z,12.17
2018-06-04T16:35:19.647Z,10.53
2018-06-04T16:37:48.993Z,12.00
2018-06-04T16:40:18.305Z,12.50
2018-06-04T16:42:47.598Z,12.33
2018-06-04T16:45:16.883Z,12.50
2018-06-04T16:47:46.264Z,12.80
2018-06-04T16:50:15.734Z,10.70
2018-06-04T16:52:44.929Z,15.23
2018-06-04T16:55:14.356Z,15.53
2018-06-04T16:57:43.678Z,16.60
2018-06-04T17:00:13.072Z,15.53
2018-06-04T17:02:42.445Z,14.40
2018-06-04T17:05:12.142Z,15.00
2018-06-04T17:07:41.517Z,15.70
2018-06-04T17:10:10.920Z,14.30
2018-06-04T17:12:40.190Z,13.10
2018-06-04T17:15:09.495Z,15.77
2018-06-04T17:17:38.815Z,21.77
2018-06-04T17:20:08.331Z,19.17
2018-06-04T17:22:37.659Z,17.13
2018-06-04T17:25:06.950Z,17.73
2018-06-04T17:27:36.293Z,15.43
2018-06-04T17:30:05.789Z,16.00
2018-06-04T17:32:35.089Z,17.70
2018-06-04T17:35:04.529Z,17.47
2018-06-04T17:37:33.882Z,17.77
2018-06-04T17:40:03.247Z,22.00
2018-06-04T17:42:32.564Z,17.40
2018-06-04T17:45:02.004Z,18.47
2018-06-04T17:47:31.446Z,19.57
2018-06-04T17:50:00.789Z,21.87
2018-06-04T17:52:30.203Z,22.80
2018-06-04T17:54:59.584Z,25.40
2018-06-04T17:57:28.951Z,23.00
2018-06-04T17:59:59.481Z,22.53
2018-06-04T18:02:28.826Z,24.00
2018-06-04T18:04:58.115Z,20.90
2018-06-04T18:07:27.425Z,21.27
2018-06-04T18:09:57.055Z,23.20
2018-06-04T18:12:26.404Z,22.60
2018-06-04T18:14:55.721Z,24.70
2018-06-04T18:17:25.087Z,24.03
2018-06-04T18:19:54.375Z,23.27
2018-06-04T18:22:23.763Z,25.63
2018-06-04T18:24:53.167Z,26.97
2018-06-04T18:27:22.603Z,27.00
2018-06-04T18:29:52.028Z,26.70
2018-06-04T18:32:21.295Z,26.53
2018-06-04T18:34:50.582Z,26.47
2018-06-04T18:37:20.079Z,27.50
2018-06-04T18:39:49.368Z,28.57
2018-06-04T18:42:18.728Z,31.03
2018-06-04T18:44:48.057Z,28.90
2018-06-04T18:47:17.465Z,29.97
2018-06-04T18:49:46.763Z,30.40
2018-06-04T18:52:16.033Z,28.70
2018-06-04T18:54:45.327Z,31.80
2018-06-04T18:57:14.811Z,33.00
2018-06-04T18:59:44.096Z,32.93
2018-06-04T19:02:13.438Z,30.57
2018-06-04T19:04:42.729Z,30.03
2018-06-04T19:07:12.037Z,29.20
2018-06-04T19:09:41.517Z,28.70
2018-06-04T19:12:10.818Z,31.87
2018-06-04T19:14:40.275Z,30.17
2018-06-04T19:17:09.545Z,32.33
2018-06-04T19:19:38.931Z,32.17
2018-06-04T19:22:08.262Z,30.00
2018-06-04T19:24:37.510Z,32.50
2018-06-04T19:27:06.777Z,30.97
2018-06-04T19:29:36.091Z,31.53
2018-06-04T19:32:05.348Z,30.10
2018-06-04T19:34:34.645Z,29.20
2018-06-04T19:37:04.023Z,30.97
2018-06-04T19:39:33.377Z,30.50
2018-06-04T19:42:02.644Z,29.53
2018-06-04T19:44:32.116Z,31.83
2018-06-04T19:47:01.431Z,32.33
2018-06-04T19:49:30.740Z,29.30
2018-06-04T19:52:00.000Z,30.17
2018-06-04T19:54:29.336Z,30.73
2018-06-04T19:56:58.740Z,30.43
2018-06-04T19:59:28.042Z,30.30
2018-06-04T20:01:57.360Z,28.20
2018-06-04T20:04:26.656Z,31.93
2018-06-04T20:06:56.027Z,31.93
2018-06-04T20:09:25.433Z,32.50
2018-06-04T20:11:54.779Z,29.37
2018-06-04T20:14:24.031Z,29.73
2018-06-04T20:16:53.419Z,31.50
2018-06-04T20:19:29.220Z,31.67
2018-06-04T20:21:58.608Z,31.37
2018-06-04T20:24:27.880Z,29.07
2018-06-04T20:26:57.132Z,31.27
2018-06-04T20:29:26.420Z,30.43
2018-06-04T20:31:55.672Z,28.00
2018-06-04T20:34:24.991Z,29.13
2018-06-04T20:36:54.411Z,31.73
2018-06-04T20:39:23.677Z,32.00
2018-06-04T20:41:53.029Z,33.87
2018-06-04T20:44:22.428Z,33.37
2018-06-04T20:46:51.817Z,32.57
2018-06-04T20:49:21.140Z,35.50
2018-06-04T20:51:50.380Z,35.63
2018-06-04T20:54:19.681Z,31.13
2018-06-04T20:56:49.015Z,30.17
2018-06-04T20:59:18.387Z,32.23
2018-06-04T21:01:47.643Z,31.70
2018-06-04T21:04:17.039Z,32.63
2018-06-04T21:06:46.322Z,31.13
2018-06-04T21:09:15.602Z,31.97
2018-06-04T21:11:44.983Z,32.97
2018-06-04T21:14:14.297Z,33.50
2018-06-04T21:16:43.687Z,30.73
2018-06-04T21:19:12.974Z,33.23
2018-06-04T21:21:42.209Z,32.03
2018-06-04T21:24:12.561Z,34.93
2018-06-04T21:26:41.815Z,33.07
2018-06-04T21:29:11.169Z,35.57
2018-06-04T21:31:40.470Z,36.73
2018-06-04T21:34:09.712Z,35.93
2018-06-04T21:36:39.008Z,39.30
2018-06-04T21:39:08.284Z,38.00
2018-06-04T21:41:37.550Z,37.00
2018-06-04T21:44:06.775Z,35.30
2018-06-04T21:46:36.014Z,36.77
2018-06-04T21:49:05.355Z,36.80
2018-06-04T21:51:34.581Z,35.00
2018-06-04T21:54:03.850Z,36.37
2018-06-04T21:56:33.120Z,35.27
2018-06-04T21:59:02.379Z,35.30
2018-06-04T22:01:31.620Z,35.33
2018-06-04T22:04:01.878Z,39.10
2018-06-04T22:06:31.645Z,40.63
2018-06-04T22:09:00.870Z,41.27
2018-06-04T22:11:30.099Z,40.07
2018-06-04T22:13:59.932Z,38.03
2018-06-04T22:16:29.173Z,37.67
2018-06-04T22:18:58.414Z,38.50
2018-06-04T22:21:27.701Z,40.53
2018-06-04T22:23:58.731Z,36.67
2018-06-04T22:26:31.952Z,37.90
2018-06-04T22:29:04.306Z,40.80
2018-06-04T22:31:33.559Z,40.13
2018-06-04T22:34:02.786Z,38.13
2018-06-04T22:36:32.098Z,35.47
2018-06-04T22:39:01.328Z,40.47
2018-06-04T22:41:31.522Z,36.53
2018-06-04T22:44:00.748Z,37.93
2018-06-04T22:46:29.988Z,38.90
2018-06-04T22:48:59.531Z,36.87
2018-06-04T22:51:28.775Z,35.40
2018-06-04T22:53:58.061Z,33.20
2018-06-04T22:56:27.296Z,33.60
2018-06-04T22:58:56.577Z,34.50
2018-06-04T23:01:25.797Z,30.70
2018-06-04T23:03:55.052Z,29.00
2018-06-04T23:06:24.300Z,35.13
2018-06-04T23:08:53.556Z,30.70
2018-06-04T23:11:22.896Z,36.03
2018-06-04T23:13:52.153Z,34.80
2018-06-04T23:16:21.484Z,32.00
2018-06-04T23:18:50.715Z,33.53
2018-06-04T23:21:19.938Z,34.13
2018-06-04T23:23:49.184Z,31.90
2018-06-04T23:26:18.433Z,38.90
2018-06-04T23:28:47.683Z,39.93
2018-06-04T23:31:16.928Z,41.43
2018-06-04T23:33:46.281Z,38.60
2018-06-04T23:36:15.533Z,39.57
2018-06-04T23:38:44.772Z,36.10
2018-06-04T23:41:14.008Z,40.17
2018-06-04T23:43:43.240Z,39.40
2018-06-04T23:46:12.618Z,40.90
2018-06-04T23:48:41.887Z,39.77
2018-06-04T23:51:11.152Z,36.67
2018-06-04T23:53:42.207Z,37.23
2018-06-04T23:56:17.295Z,33.63
2018-06-04T23:58:50.303Z,37.23
